»·PEaware :: N149CD KSBA-KSBP

N149CD :: KSBA-KSBP

FLIGHT INFORMATION

Flight Status: Arrived
Operator: Privately registered:
United States
More flights under this callsign
Pilot: Nathan E. (30132)
Aircraft: CESSNA 172 SKYHAWK
(C172)
More flights by this aircraft type
Origin: KSBA Santa Barbara Mun
United States
Destination: KSBP San Luis Co Regl
United States
More flights between these airports :: More routes between these airports
Route: GVO V27 MQO
File this flight plan on PilotEdge
Remarks:
Altitude:
(Current/Filed)
8,000ft
Speed:
(Current/Filed)
110kts
Departed: 21-Sep-20 02:36 PM
Arrived: 21-Sep-20 03:18 PM
Distance/Time
Traveled:
62nm/0:42
Distance/Time
To Go:
Arrived

Flight Plot

Page will automatically refresh every two minutes.


Map Options




Map Legend


Flown Route
Filed Route
Departure Airport
Arrival Airport
Navaid (VOR, NDB)
Fix

Horizontal Profiles

Position Reports

Time Latitude Longitude Heading Altitude Ground
Speed
21-Sep-20 14:29 34.428761 -119.834311 182 10ft 0kts
21-Sep-20 14:30 34.428761 -119.834311 182 10ft 0kts
21-Sep-20 14:31 34.428761 -119.834311 182 10ft 0kts
21-Sep-20 14:32 34.428761 -119.834311 182 10ft 0kts
21-Sep-20 14:33 34.428761 -119.834311 182 10ft 0kts
21-Sep-20 14:34 34.427894 -119.835470 265 10ft 5kts
21-Sep-20 14:35 34.427464 -119.853014 265 362ft 78kts
21-Sep-20 14:36 34.426854 -119.876609 266 1306ft 68kts
21-Sep-20 14:37 34.426189 -119.899808 266 2148ft 69kts
21-Sep-20 14:38 34.426355 -119.923473 267 2950ft 72kts
21-Sep-20 14:39 34.426967 -119.956028 268 3000ft 104kts
21-Sep-20 14:40 34.427591 -119.991270 268 2999ft 103kts
21-Sep-20 14:41 34.428217 -120.026280 268 2999ft 103kts
21-Sep-20 14:42 34.428917 -120.059121 267 3591ft 74kts
21-Sep-20 14:43 34.430054 -120.083385 267 4329ft 73kts
21-Sep-20 14:44 34.445156 -120.096441 2 5006ft 91kts
21-Sep-20 14:45 34.470986 -120.093493 358 5647ft 93kts
21-Sep-20 14:46 34.496992 -120.092229 356 6244ft 94kts
21-Sep-20 14:47 34.524030 -120.091567 356 6850ft 95kts
21-Sep-20 14:48 34.546101 -120.106373 317 7409ft 91kts
21-Sep-20 14:49 34.566834 -120.124464 316 7935ft 93kts
21-Sep-20 14:50 34.591595 -120.146800 317 7971ft 116kts
21-Sep-20 14:51 34.617744 -120.170599 317 7972ft 118kts
21-Sep-20 14:52 34.644130 -120.194795 317 7972ft 118kts
21-Sep-20 14:53 34.670368 -120.218930 317 7972ft 118kts
21-Sep-20 14:54 34.696571 -120.243065 317 7973ft 118kts
21-Sep-20 14:55 34.722731 -120.267182 317 7977ft 118kts
21-Sep-20 14:56 34.748586 -120.291034 316 7987ft 117kts
21-Sep-20 14:57 34.774723 -120.315172 316 7996ft 116kts
21-Sep-20 14:58 34.800457 -120.338958 316 8004ft 115kts
21-Sep-20 14:59 34.825954 -120.362533 316 8010ft 115kts
21-Sep-20 15:00 34.851413 -120.386093 316 8014ft 114kts
21-Sep-20 15:01 34.876536 -120.409366 316 8017ft 113kts
21-Sep-20 15:02 34.901809 -120.432805 316 7991ft 115kts
21-Sep-20 15:03 34.928048 -120.457123 316 7496ft 119kts
21-Sep-20 15:04 34.954194 -120.481384 316 6992ft 116kts
21-Sep-20 15:05 34.979912 -120.505274 317 6255ft 117kts
21-Sep-20 15:06 35.005704 -120.528977 326 5239ft 116kts
21-Sep-20 15:07 35.036979 -120.516574 25 4549ft 120kts
21-Sep-20 15:08 35.063654 -120.492047 32 3801ft 123kts
21-Sep-20 15:09 35.090924 -120.467230 32 3314ft 121kts
21-Sep-20 15:10 35.119555 -120.451795 330 3144ft 113kts
21-Sep-20 15:11 35.141376 -120.477756 303 2911ft 109kts
21-Sep-20 15:12 35.159956 -120.507612 301 2909ft 111kts
21-Sep-20 15:13 35.178661 -120.538266 300 2363ft 114kts
21-Sep-20 15:14 35.196979 -120.570247 300 1663ft 114kts
21-Sep-20 15:15 35.213546 -120.599261 299 1033ft 89kts
21-Sep-20 15:16 35.225561 -120.620369 298 570ft 70kts
21-Sep-20 15:17 35.235443 -120.637678 305 216ft 37kts
21-Sep-20 15:18 35.237603 -120.639629 105 216ft 11kts
21-Sep-20 15:19 35.234305 -120.633793 126 216ft 21kts
21-Sep-20 15:20 35.232970 -120.631990 217 216ft 0kts
21-Sep-20 15:21 35.232970 -120.631990 217 216ft 0kts
21-Sep-20 15:22 35.232970 -120.631990 217 216ft 0kts
21-Sep-20 15:23 35.232970 -120.631990 217 216ft 0kts
21-Sep-20 15:24 35.232970 -120.631990 217 216ft 0kts
21-Sep-20 15:25 35.232970 -120.631990 217 216ft 0kts

Navigation Log

Ident Type
Flight plan parsing failed, navigation log unavailable